M I D A S
Marine Information and Data Acquisition System
Tripno 1680 of the Zeeleeuw from 2009-04-23 11:40:05 to 2009-04-23 13:59:39
Back to CruiseResearch ActivitiesStationsMapUnderway DataData graphs

EquipmentUnitsComment
TimeDGPSUTC
LatitudeDGPSDM.mWGS84
LongitudeDGPSDM.mWGS84
HeadingGyrodeg 
SOGDGPSknotsSpeed over ground
COGDGPSdegCourse over ground
DepthEcho soundermeters200 kHz
Missing or incorrect values are displayed as -999
Navigation data collected by the RV Zeeleeuw from 2009-04-23 07:44:55 to 2009-04-23 14:07:14
                                                                                    Next 1000 lines
Time Latitude Longitude Heading SOG COG Depth
2009-04-23 07:45:04 51°13.663 2°55.954 113.3 1.1 291 5.1
2009-04-23 07:45:10 51°13.664 2°55.95 113.3 1.5 295 5.1
2009-04-23 07:45:15 51°13.665 2°55.947 113.4 1.8 294 5.2
2009-04-23 07:45:20 51°13.666 2°55.943 113.7 2.1 297 -999
2009-04-23 07:45:26 51°13.668 2°55.937 114 2.3 296 -999
2009-04-23 07:45:32 51°13.67 2°55.932 113.8 2.4 296 -999
2009-04-23 07:45:37 51°13.671 2°55.926 113.3 2.6 296 -999
2009-04-23 07:45:43 51°13.673 2°55.92 112.6 2.6 293 -999
2009-04-23 07:45:48 51°13.674 2°55.915 111.7 2.7 294 -999
2009-04-23 07:45:54 51°13.676 2°55.908 110.6 2.7 291 -999
2009-04-23 07:45:58 51°13.677 2°55.904 109.6 2.8 291 -999
2009-04-23 07:46:03 51°13.678 2°55.898 108.6 2.8 289 -999
2009-04-23 07:46:08 51°13.68 2°55.892 107.7 2.9 289 -999
2009-04-23 07:46:14 51°13.681 2°55.884 106.9 2.9 288 -999
2009-04-23 07:46:18 51°13.682 2°55.879 106.2 3 287 -999
2009-04-23 07:46:23 51°13.683 2°55.873 105.6 3 286 -999
2009-04-23 07:46:28 51°13.684 2°55.867 105.1 3 285 -999
2009-04-23 07:46:34 51°13.686 2°55.859 104.4 3 284 -999
2009-04-23 07:46:39 51°13.687 2°55.852 103.2 3 284 -999
2009-04-23 07:46:43 51°13.687 2°55.847 101.7 3 282 -999
2009-04-23 07:46:48 51°13.688 2°55.841 100.2 3 281 -999
2009-04-23 07:46:53 51°13.689 2°55.834 98.8 3 280 -999
2009-04-23 07:46:58 51°13.689 2°55.828 97.1 3 278 -999
2009-04-23 07:47:03 51°13.69 2°55.821 95.5 3 278 -999
2009-04-23 07:47:08 51°13.69 2°55.815 94.3 3 277 -999
2009-04-23 07:47:13 51°13.691 2°55.809 93.5 2.9 276 -999
2009-04-23 07:47:18 51°13.691 2°55.802 92.8 2.8 276 -999
2009-04-23 07:47:23 51°13.692 2°55.796 91.8 2.7 275 -999
2009-04-23 07:47:28 51°13.692 2°55.79 90.9 2.6 275 9.1
2009-04-23 07:47:33 51°13.692 2°55.784 90.1 2.5 274 -999
2009-04-23 07:47:38 51°13.693 2°55.779 89.4 2.3 273 10.8
2009-04-23 07:47:43 51°13.693 2°55.774 88.6 2.2 273 10.8
2009-04-23 07:47:48 51°13.693 2°55.77 87.3 2.1 273 11.2
2009-04-23 07:47:52 51°13.693 2°55.766 85.8 2 273 11.5
2009-04-23 07:47:57 51°13.693 2°55.762 84.8 1.8 273 11.7
2009-04-23 07:48:02 51°13.693 2°55.759 83.4 1.4 273 12
2009-04-23 07:48:07 51°13.694 2°55.756 81.3 1.1 275 12.3
2009-04-23 07:48:12 51°13.694 2°55.754 78.5 0.8 279 12.4
2009-04-23 07:48:16 51°13.694 2°55.754 74.8 0.5 303 12.3
2009-04-23 07:48:21 51°13.695 2°55.754 70.6 0.4 356 12.3
2009-04-23 07:48:26 51°13.695 2°55.754 66.8 0.6 21 12.3
2009-04-23 07:48:31 51°13.696 2°55.755 60.4 0.9 32 12.4
2009-04-23 07:48:36 51°13.698 2°55.756 56 1.1 30 12.2
2009-04-23 07:48:41 51°13.699 2°55.757 48.8 1.2 32 12.2
2009-04-23 07:48:46 51°13.701 2°55.759 44.3 1.2 28 12.1
2009-04-23 07:48:51 51°13.702 2°55.76 38.1 1.1 25 12
2009-04-23 07:48:55 51°13.703 2°55.76 34.9 0.9 21 12
2009-04-23 07:49:00 51°13.704 2°55.761 31.3 0.5 18 12.1
2009-04-23 07:49:05 51°13.704 2°55.761 28.7 0.2 357 12.2
2009-04-23 07:49:10 51°13.704 2°55.761 25.2 0.1 266 12.1
2009-04-23 07:49:15 51°13.704 2°55.76 22 0.2 229 12.1
2009-04-23 07:49:20 51°13.703 2°55.76 18.9 0.2 227 12.1
2009-04-23 07:49:24 51°13.703 2°55.76 17.1 0.2 222 12.2
2009-04-23 07:49:30 51°13.703 2°55.76 15.3 0.2 234 12.2
2009-04-23 07:49:34 51°13.703 2°55.759 13.8 0.3 317 12.1
2009-04-23 07:49:40 51°13.704 2°55.759 11.4 1 2 12.2
2009-04-23 07:49:44 51°13.706 2°55.759 7.7 1.6 350 12.2
2009-04-23 07:49:50 51°13.71 2°55.758 0.8 2.1 350 12.2
2009-04-23 07:49:55 51°13.713 2°55.756 352.6 2.4 340 12.2
2009-04-23 07:50:00 51°13.716 2°55.754 342.7 2.7 338 11.8
2009-04-23 07:50:04 51°13.719 2°55.751 334.8 3.1 329 11.6
2009-04-23 07:50:10 51°13.724 2°55.746 328.3 3.4 325 11.3
2009-04-23 07:50:15 51°13.728 2°55.741 325.2 3.9 323 11.2
2009-04-23 07:50:20 51°13.733 2°55.734 322.4 4.4 322 11.1
2009-04-23 07:50:24 51°13.737 2°55.729 322.1 4.9 322 11
2009-04-23 07:50:30 51°13.744 2°55.721 322.8 5.3 322 10.8
2009-04-23 07:50:35 51°13.751 2°55.714 323.9 5.7 324 10.2
2009-04-23 07:50:40 51°13.757 2°55.706 325.3 5.9 324 9.7
2009-04-23 07:50:44 51°13.763 2°55.7 326.4 6.2 326 9.6
2009-04-23 07:50:50 51°13.772 2°55.69 327.5 6.4 326 9.4
2009-04-23 07:50:55 51°13.779 2°55.682 328 6.6 327 9.7
2009-04-23 07:51:00 51°13.787 2°55.674 328 6.8 326 -999
2009-04-23 07:51:04 51°13.794 2°55.667 328 7 328 9.9
2009-04-23 07:51:10 51°13.804 2°55.658 328.6 7.1 327 9.8
2009-04-23 07:51:15 51°13.813 2°55.65 329.1 7.2 329 9.8
2009-04-23 07:51:19 51°13.82 2°55.644 330.1 7.4 329 9.8
2009-04-23 07:51:24 51°13.829 2°55.636 330.9 7.5 331 9.7
2009-04-23 07:51:29 51°13.838 2°55.628 331.9 7.6 331 9.7
2009-04-23 07:51:35 51°13.849 2°55.618 332.9 7.6 333 9.9
2009-04-23 07:51:39 51°13.857 2°55.612 334.2 7.7 334 10.1
2009-04-23 07:51:45 51°13.868 2°55.602 334.6 7.8 333 10.1
2009-04-23 07:51:50 51°13.878 2°55.594 334.6 7.8 334 10.1
2009-04-23 07:51:55 51°13.887 2°55.586 334.7 7.9 334 10.2
2009-04-23 07:51:59 51°13.895 2°55.58 335.3 7.9 335 10.1
2009-04-23 07:52:05 51°13.907 2°55.571 336 8 335 10.2
2009-04-23 07:52:10 51°13.917 2°55.564 336.1 8 335 10.2
2009-04-23 07:52:15 51°13.928 2°55.556 336.2 8.1 335 10.2
2009-04-23 07:52:19 51°13.936 2°55.55 336.5 8.2 335 10.2
2009-04-23 07:52:25 51°13.948 2°55.541 336.6 8.2 335 10.3
2009-04-23 07:52:30 51°13.959 2°55.534 336.9 8.3 336 10.3
2009-04-23 07:52:35 51°13.969 2°55.526 337.1 8.3 336 10.3
2009-04-23 07:52:39 51°13.978 2°55.52 337.7 8.4 336 10.3
2009-04-23 07:52:45 51°13.991 2°55.511 337.8 8.5 336 10.1
2009-04-23 07:52:50 51°14.001 2°55.503 337.5 8.6 336 10.2
2009-04-23 07:52:55 51°14.012 2°55.495 337.2 8.6 336 10.1
2009-04-23 07:52:59 51°14.021 2°55.489 337.7 8.6 336 9.8
2009-04-23 07:53:05 51°14.034 2°55.479 338.2 8.7 336 10.1
2009-04-23 07:53:10 51°14.045 2°55.472 338.2 8.7 336 10.1
2009-04-23 07:53:15 51°14.056 2°55.464 338.1 8.7 336 10.2
2009-04-23 07:53:20 51°14.067 2°55.456 337.9 8.7 336 10.1
2009-04-23 07:53:24 51°14.076 2°55.449 337.9 8.8 336 10.1
2009-04-23 07:53:30 51°14.09 2°55.44 337.9 8.8 336 10.1
2009-04-23 07:53:35 51°14.1 2°55.431 337.5 8.8 335 10.1
2009-04-23 07:53:40 51°14.111 2°55.423 336.8 8.8 334 10.2
2009-04-23 07:53:44 51°14.121 2°55.417 336 8.9 333 10.1
2009-04-23 07:53:50 51°14.134 2°55.406 334.8 8.9 332 10.1
2009-04-23 07:53:55 51°14.145 2°55.397 333.7 8.9 332 10.1
2009-04-23 07:54:00 51°14.156 2°55.387 333.2 9 331 10.1
2009-04-23 07:54:05 51°14.166 2°55.377 332.3 9 330 10.1
2009-04-23 07:54:10 51°14.177 2°55.367 331.2 9 329 10.1
2009-04-23 07:54:15 51°14.187 2°55.356 330.4 9 328 10.1
2009-04-23 07:54:20 51°14.198 2°55.345 329.5 9 327 10.1
2009-04-23 07:54:24 51°14.206 2°55.336 328 9 325 10.1
2009-04-23 07:54:30 51°14.217 2°55.321 326.4 9 323 10.2
2009-04-23 07:54:35 51°14.227 2°55.309 324.8 9 321 10.1
2009-04-23 07:54:39 51°14.235 2°55.298 322.5 9 319 10.2
2009-04-23 07:54:44 51°14.244 2°55.285 320.1 8.9 317 10.1
2009-04-23 07:54:50 51°14.254 2°55.268 317.4 8.9 314 10.1
2009-04-23 07:54:55 51°14.263 2°55.254 315.6 9 314 10.1
2009-04-23 07:55:00 51°14.271 2°55.239 314.7 9.1 313 10.1
2009-04-23 07:55:05 51°14.28 2°55.224 314.6 9.1 314 10.1
2009-04-23 07:55:10 51°14.288 2°55.209 314.5 9.1 312 10.1
2009-04-23 07:55:15 51°14.297 2°55.194 313.3 9.2 311 10.1
2009-04-23 07:55:20 51°14.305 2°55.179 313 9.2 311 10.2
2009-04-23 07:55:24 51°14.312 2°55.167 312.1 9.2 310 10.2
2009-04-23 07:55:30 51°14.321 2°55.147 310.7 9.3 309 10.2
2009-04-23 07:55:35 51°14.329 2°55.131 309.8 9.4 308 10.2
2009-04-23 07:55:40 51°14.337 2°55.114 309.4 9.5 307 10.3
2009-04-23 07:55:44 51°14.344 2°55.101 308.5 9.6 306 10.3
2009-04-23 07:55:50 51°14.353 2°55.079 307 9.7 304 10.3
2009-04-23 07:55:55 51°14.36 2°55.062 305.7 9.7 304 10.2
2009-04-23 07:56:00 51°14.367 2°55.043 304.8 9.8 303 10
2009-04-23 07:56:04 51°14.373 2°55.029 304.2 9.8 303 9.8
2009-04-23 07:56:10 51°14.382 2°55.007 304.2 9.9 303 9.8
2009-04-23 07:56:15 51°14.39 2°54.988 304.4 10 303 9.8
2009-04-23 07:56:20 51°14.397 2°54.969 304.2 10.1 301 9.9
2009-04-23 07:56:25 51°14.404 2°54.949 302.5 10.1 299 10
2009-04-23 07:56:30 51°14.41 2°54.929 300.3 10.2 297 10.1
2009-04-23 07:56:35 51°14.416 2°54.908 298.3 10.3 295 10.1
2009-04-23 07:56:39 51°14.421 2°54.892 296.9 10.4 294 10.2
2009-04-23 07:56:44 51°14.427 2°54.87 295.7 10.6 292 10.2
2009-04-23 07:56:50 51°14.433 2°54.844 294.6 10.7 291 10.3
2009-04-23 07:56:55 51°14.439 2°54.822 293.9 10.8 291 10.3
2009-04-23 07:56:59 51°14.443 2°54.804 294 11 293 10.3
2009-04-23 07:57:04 51°14.45 2°54.782 295.2 11 293 10.2
2009-04-23 07:57:10 51°14.457 2°54.755 296.8 11 295 10.3
2009-04-23 07:57:15 51°14.463 2°54.732 297.2 11 293 10.2
2009-04-23 07:57:19 51°14.468 2°54.714 297.5 11 295 10.2
2009-04-23 07:57:25 51°14.476 2°54.688 297.8 11 294 10.2
2009-04-23 07:57:30 51°14.482 2°54.666 298.1 11.1 295 10.3
2009-04-23 07:57:35 51°14.489 2°54.644 298.5 11.1 295 10.3
2009-04-23 07:57:40 51°14.496 2°54.622 298.9 11.1 296 10.3
2009-04-23 07:57:44 51°14.501 2°54.604 299.3 11.1 296 10.3
2009-04-23 07:57:50 51°14.509 2°54.578 300 11.1 297 10.4
2009-04-23 07:57:55 51°14.516 2°54.557 300.6 10.6 297 10.3
2009-04-23 07:58:00 51°14.522 2°54.537 300.6 10 297 10.4
2009-04-23 07:58:04 51°14.527 2°54.523 301.1 9.4 298 10.3
2009-04-23 07:58:10 51°14.534 2°54.502 301.7 8.9 298 10.4
2009-04-23 07:58:15 51°14.539 2°54.486 302.1 8.4 298 10.6
2009-04-23 07:58:20 51°14.544 2°54.47 302.1 8 297 10.5
2009-04-23 07:58:24 51°14.548 2°54.459 302.4 7.7 298 10.7
2009-04-23 07:58:30 51°14.554 2°54.441 302.8 7.4 298 10.5
2009-04-23 07:58:35 51°14.559 2°54.428 303.5 7.1 299 10.5
2009-04-23 07:58:40 51°14.564 2°54.414 304.2 6.9 299 10.6
2009-04-23 07:58:45 51°14.568 2°54.402 304.9 6.7 300 10.5
2009-04-23 07:58:50 51°14.573 2°54.389 305.5 6.6 300 10.6
2009-04-23 07:58:55 51°14.577 2°54.377 305.8 6.5 300 10.5
2009-04-23 07:59:00 51°14.582 2°54.364 305.9 6.5 299 10.6
2009-04-23 07:59:04 51°14.586 2°54.354 305 6.7 298 10.5
2009-04-23 07:59:10 51°14.591 2°54.337 304.1 7 297 10.5
2009-04-23 07:59:15 51°14.595 2°54.323 303 7.3 297 10.5
2009-04-23 07:59:20 51°14.6 2°54.308 302.4 7.6 296 10.5
2009-04-23 07:59:24 51°14.604 2°54.295 301.9 7.8 296 10.5
2009-04-23 07:59:30 51°14.61 2°54.276 301.5 8.1 296 10.6
2009-04-23 07:59:35 51°14.615 2°54.259 301.4 8.4 296 10.5
2009-04-23 07:59:39 51°14.619 2°54.245 301.4 8.7 296 10.6
2009-04-23 07:59:45 51°14.626 2°54.223 301.6 9.1 296 10.6
2009-04-23 07:59:50 51°14.631 2°54.204 301.8 9.4 297 10.6
2009-04-23 07:59:55 51°14.637 2°54.185 302 9.6 296 10.6
2009-04-23 08:00:00 51°14.643 2°54.165 301.9 9.9 296 10.6
2009-04-23 08:00:04 51°14.648 2°54.149 301.4 10.1 296 10.7
2009-04-23 08:00:10 51°14.656 2°54.125 301.3 10.3 296 10.5
2009-04-23 08:00:15 51°14.662 2°54.104 301.3 10.5 296 10.9
2009-04-23 08:00:20 51°14.669 2°54.082 301.3 10.8 297 10.5
2009-04-23 08:00:24 51°14.674 2°54.065 301.6 11 297 10.6
2009-04-23 08:00:30 51°14.683 2°54.039 301.9 11.2 297 10.5
2009-04-23 08:00:35 51°14.69 2°54.016 301.3 11.4 296 10.7
2009-04-23 08:00:40 51°14.697 2°53.993 300.6 11.5 296 10.6
2009-04-23 08:00:44 51°14.703 2°53.974 300.1 11.7 296 10.5
2009-04-23 08:00:50 51°14.711 2°53.946 300 11.8 296 10.5
2009-04-23 08:00:55 51°14.718 2°53.923 300.6 11.8 297 10.4
2009-04-23 08:01:00 51°14.726 2°53.899 300.9 11.9 296 10.2
2009-04-23 08:01:04 51°14.732 2°53.88 301.3 12 297 10.2
2009-04-23 08:01:10 51°14.741 2°53.852 302 12 297 10
2009-04-23 08:01:15 51°14.748 2°53.828 301.5 12 296 10
2009-04-23 08:01:20 51°14.756 2°53.804 301.6 12 297 10
2009-04-23 08:01:24 51°14.762 2°53.785 302 12 297 10
2009-04-23 08:01:30 51°14.771 2°53.756 302 12.1 296 10
2009-04-23 08:01:35 51°14.778 2°53.732 301.8 12.1 296 9.9
2009-04-23 08:01:40 51°14.786 2°53.708 301.6 12.1 296 10
2009-04-23 08:01:45 51°14.793 2°53.684 301.4 12.1 296 10
2009-04-23 08:01:50 51°14.8 2°53.66 301.4 12.1 296 10
2009-04-23 08:01:55 51°14.808 2°53.636 301.8 12.1 297 9.9
2009-04-23 08:01:59 51°14.814 2°53.618 302.1 12.1 297 10
2009-04-23 08:02:05 51°14.823 2°53.589 302.1 12.1 297 9.9
2009-04-23 08:02:10 51°14.831 2°53.565 302 12.1 297 10
2009-04-23 08:02:15 51°14.838 2°53.541 301.8 12.1 297 10.1
2009-04-23 08:02:20 51°14.846 2°53.518 301.6 12.1 297 9.9
2009-04-23 08:02:24 51°14.852 2°53.499 301.7 12.1 297 9.9
2009-04-23 08:02:30 51°14.861 2°53.47 302 12 298 9.9
2009-04-23 08:02:35 51°14.869 2°53.447 301.6 12 297 9.8
2009-04-23 08:02:40 51°14.876 2°53.423 300.5 12 296 9.8
2009-04-23 08:02:44 51°14.881 2°53.403 299.9 12 295 9.8
2009-04-23 08:02:50 51°14.89 2°53.375 299.9 12 296 9.8
2009-04-23 08:02:55 51°14.897 2°53.351 300.1 12 295 9.8
2009-04-23 08:03:00 51°14.904 2°53.327 299.9 12 295 9.8
2009-04-23 08:03:05 51°14.911 2°53.302 299.5 12.1 294 9.8
2009-04-23 08:03:10 51°14.918 2°53.278 299.2 12 295 9.8
2009-04-23 08:03:15 51°14.925 2°53.254 299.3 12.1 294 9.8
2009-04-23 08:03:20 51°14.932 2°53.229 299 12.1 294 9.9
2009-04-23 08:03:24 51°14.937 2°53.21 298.8 12.1 294 9.9
2009-04-23 08:03:30 51°14.946 2°53.181 299 12.1 295 9.9
2009-04-23 08:03:35 51°14.953 2°53.156 299.2 12.1 295 10
2009-04-23 08:03:40 51°14.96 2°53.132 299.5 12.1 295 10
2009-04-23 08:03:44 51°14.965 2°53.113 299.6 12.1 295 10
2009-04-23 08:03:50 51°14.974 2°53.084 299.6 12.1 295 10.1
2009-04-23 08:03:55 51°14.981 2°53.059 299.5 12.1 294 10.1
2009-04-23 08:04:00 51°14.988 2°53.035 299.4 12.1 295 10.1
2009-04-23 08:04:05 51°14.994 2°53.01 299 12.1 293 10.1
2009-04-23 08:04:10 51°15.001 2°52.985 298.2 12.1 293 10.1
2009-04-23 08:04:15 51°15.008 2°52.96 298.3 12.2 294 10.2
2009-04-23 08:04:20 51°15.015 2°52.936 298.6 12.1 294 10.1
2009-04-23 08:04:24 51°15.02 2°52.916 299.4 12.2 294 10.2
2009-04-23 08:04:30 51°15.029 2°52.888 300.1 12.2 295 10.2
2009-04-23 08:04:35 51°15.037 2°52.865 300.6 12.2 295 10.2
2009-04-23 08:04:40 51°15.044 2°52.84 300.6 12.2 295 10.3
2009-04-23 08:04:44 51°15.05 2°52.821 300.6 12.2 295 10.3
2009-04-23 08:04:50 51°15.059 2°52.792 301 12.2 296 10.2
2009-04-23 08:04:55 51°15.066 2°52.767 301.1 12.2 296 10.1
2009-04-23 08:05:00 51°15.073 2°52.743 301.1 12.2 296 10.3
2009-04-23 08:05:04 51°15.079 2°52.724 301.1 12.2 295 10.3
2009-04-23 08:05:10 51°15.088 2°52.694 300.7 12.2 295 10.3
2009-04-23 08:05:15 51°15.095 2°52.67 300.6 12.2 295 10.4
2009-04-23 08:05:20 51°15.102 2°52.645 300.1 12.3 294 10.4
2009-04-23 08:05:25 51°15.109 2°52.62 300.2 12.2 296 10.4
2009-04-23 08:05:30 51°15.116 2°52.596 300.6 12.2 295 10.4
2009-04-23 08:05:35 51°15.123 2°52.571 300.6 12.3 295 10.5
2009-04-23 08:05:40 51°15.13 2°52.546 300.1 12.3 294 10.4
2009-04-23 08:05:44 51°15.136 2°52.527 299.8 12.2 294 10.5
2009-04-23 08:05:50 51°15.144 2°52.497 299.9 12.2 294 10.5
2009-04-23 08:05:55 51°15.151 2°52.473 300.1 12.2 295 10.5
2009-04-23 08:05:59 51°15.157 2°52.453 299.7 12.2 294 10.5
2009-04-23 08:06:04 51°15.163 2°52.428 299.2 12.3 294 10.6
2009-04-23 08:06:10 51°15.173 2°52.399 299.8 12.2 295 10.6
2009-04-23 08:06:15 51°15.18 2°52.374 299.8 12.2 294 10.7
2009-04-23 08:06:19 51°15.186 2°52.355 300.5 12.2 296 10.7
2009-04-23 08:06:25 51°15.194 2°52.325 300.3 12.2 294 10.7
2009-04-23 08:06:30 51°15.201 2°52.301 300.1 12.2 296 10.8
2009-04-23 08:06:35 51°15.208 2°52.276 300.1 12.2 294 10.9
2009-04-23 08:06:40 51°15.215 2°52.251 299.1 12.2 294 10.9
2009-04-23 08:06:44 51°15.22 2°52.231 298.4 12.2 293 10.9
2009-04-23 08:06:50 51°15.228 2°52.201 298.3 12.2 293 11
2009-04-23 08:06:55 51°15.234 2°52.176 297.8 12.2 292 11
2009-04-23 08:07:00 51°15.241 2°52.152 297.7 12.2 292 11.1
2009-04-23 08:07:04 51°15.246 2°52.133 297.9 12.3 292 11.2
2009-04-23 08:07:10 51°15.255 2°52.103 298.5 12.3 292 11.2
2009-04-23 08:07:15 51°15.261 2°52.078 299.1 12.2 293 11.2
2009-04-23 08:07:20 51°15.268 2°52.053 299.6 12.2 294 11.3
2009-04-23 08:07:24 51°15.273 2°52.033 300 12.2 295 11.3
2009-04-23 08:07:30 51°15.282 2°52.003 300.5 12.2 295 11.4
2009-04-23 08:07:35 51°15.289 2°51.978 300.3 12.2 295 11.4
2009-04-23 08:07:40 51°15.296 2°51.954 300.2 12.2 295 11.5
2009-04-23 08:07:44 51°15.301 2°51.934 299.7 12.2 294 11.5
2009-04-23 08:07:50 51°15.31 2°51.905 298.7 12.2 294 11.6
2009-04-23 08:07:55 51°15.317 2°51.88 298.4 12.2 293 11.6
2009-04-23 08:07:59 51°15.322 2°51.86 297.9 12.2 291 11.7
2009-04-23 08:08:04 51°15.328 2°51.835 297.4 12.1 292 11.7
2009-04-23 08:08:10 51°15.333 2°51.804 292.1 12.2 284 11.7
2009-04-23 08:08:15 51°15.338 2°51.779 289.4 12.2 285 11.8
2009-04-23 08:08:20 51°15.341 2°51.753 288.1 12 281 11.8
2009-04-23 08:08:24 51°15.342 2°51.731 283.8 12.2 278 11.8
2009-04-23 08:08:30 51°15.343 2°51.699 280.5 12.2 274 11.9
2009-04-23 08:08:35 51°15.344 2°51.672 277.7 12.2 272 11.9
2009-04-23 08:08:39 51°15.343 2°51.65 272.8 12.3 267 12
2009-04-23 08:08:45 51°15.342 2°51.617 270.7 12.2 267 12
2009-04-23 08:08:50 51°15.338 2°51.59 267.1 12.3 261 12
2009-04-23 08:08:55 51°15.335 2°51.563 264.1 12.3 260 12
2009-04-23 08:09:00 51°15.331 2°51.536 261.3 12.4 258 12.1
2009-04-23 08:09:04 51°15.327 2°51.514 259.1 12.4 255 12.1
2009-04-23 08:09:10 51°15.321 2°51.482 257.2 12.5 254 12.1
2009-04-23 08:09:15 51°15.316 2°51.456 256.2 12.5 253 12.1
2009-04-23 08:09:20 51°15.311 2°51.429 254.6 12.5 252 12.1
2009-04-23 08:09:24 51°15.306 2°51.408 253.7 12.6 251 12.1
2009-04-23 08:09:30 51°15.299 2°51.377 252.6 12.6 250 12.1
2009-04-23 08:09:35 51°15.293 2°51.351 251.9 12.5 249 12.2
2009-04-23 08:09:40 51°15.287 2°51.325 251.4 12.3 250 12.1
2009-04-23 08:09:45 51°15.281 2°51.301 251 12 249 12.2
2009-04-23 08:09:50 51°15.275 2°51.277 251 11.7 250 12.2
2009-04-23 08:09:55 51°15.269 2°51.253 250.8 11.5 249 12.3
2009-04-23 08:10:00 51°15.264 2°51.23 250.4 11.2 247 12.3
2009-04-23 08:10:04 51°15.26 2°51.212 250 10.7 249 12.3
2009-04-23 08:10:10 51°15.253 2°51.188 249.8 10 248 12.3
2009-04-23 08:10:15 51°15.248 2°51.169 249.8 9.4 248 12.3
2009-04-23 08:10:20 51°15.244 2°51.151 249.4 8.9 248 12.4
2009-04-23 08:10:24 51°15.24 2°51.137 249.3 8.5 247 12.4
2009-04-23 08:10:30 51°15.234 2°51.117 249 8.2 247 12.4
2009-04-23 08:10:35 51°15.23 2°51.102 248.8 7.8 246 12.4
2009-04-23 08:10:40 51°15.226 2°51.086 248.6 7.6 246 12.4
2009-04-23 08:10:45 51°15.222 2°51.072 248.4 7.3 246 12.5
2009-04-23 08:10:50 51°15.218 2°51.058 248.3 6.9 246 12.5
2009-04-23 08:10:55 51°15.214 2°51.045 247.6 6.6 244 12.5
2009-04-23 08:11:00 51°15.21 2°51.033 246.3 6.3 244 12.5
2009-04-23 08:11:04 51°15.207 2°51.023 244.3 6.1 242 12.5
2009-04-23 08:11:10 51°15.202 2°51.01 242.5 5.8 241 12.6
2009-04-23 08:11:15 51°15.198 2°50.999 240.7 5.6 239 12.5
2009-04-23 08:11:20 51°15.194 2°50.989 239.1 5.4 238 12.5
2009-04-23 08:11:24 51°15.191 2°50.982 237.6 5.2 237 12.5
2009-04-23 08:11:30 51°15.186 2°50.971 236.3 5.1 235 12.6
2009-04-23 08:11:35 51°15.182 2°50.962 235.2 4.9 235 12.5
2009-04-23 08:11:40 51°15.178 2°50.953 234 4.8 234 12.5
2009-04-23 08:11:44 51°15.175 2°50.947 233 4.6 233 12.5
2009-04-23 08:11:50 51°15.171 2°50.937 232 4.5 232 12.2
2009-04-23 08:11:55 51°15.167 2°50.93 231.4 4.4 230 12.5
2009-04-23 08:12:00 51°15.163 2°50.922 230.3 4.3 232 12.5
2009-04-23 08:12:05 51°15.159 2°50.916 229.1 4.2 229 12.5
2009-04-23 08:12:10 51°15.156 2°50.909 227.8 4.1 229 12.6
2009-04-23 08:12:15 51°15.152 2°50.902 226.2 4 227 12.4
2009-04-23 08:12:20 51°15.148 2°50.896 224.7 3.8 226 12.6
2009-04-23 08:12:24 51°15.145 2°50.892 222.9 3.7 223 12.4
2009-04-23 08:12:30 51°15.141 2°50.885 221.1 3.6 225 12.6
2009-04-23 08:12:35 51°15.137 2°50.88 219.3 3.5 222 12.6
2009-04-23 08:12:39 51°15.135 2°50.876 217.4 3.5 221 12.4
2009-04-23 08:12:44 51°15.131 2°50.871 215.7 3.4 219 12.3
2009-04-23 08:12:50 51°15.126 2°50.866 213.7 3.3 220 12.6
2009-04-23 08:12:55 51°15.123 2°50.862 211.7 3.2 216 12.6
2009-04-23 08:12:59 51°15.12 2°50.858 209.8 3.2 216 12.5
2009-04-23 08:13:05 51°15.116 2°50.854 207.9 3.1 214 12.5
2009-04-23 08:13:10 51°15.112 2°50.85 206 3 214 12.3
2009-04-23 08:13:15 51°15.109 2°50.847 204.3 2.9 211 12.5
2009-04-23 08:13:20 51°15.105 2°50.844 202.5 2.9 211 12.4
2009-04-23 08:13:24 51°15.102 2°50.842 200.5 2.8 210 12.4
2009-04-23 08:13:30 51°15.098 2°50.838 198.7 2.8 209 12.5
2009-04-23 08:13:35 51°15.095 2°50.836 196.9 2.7 207 12.4
2009-04-23 08:13:40 51°15.092 2°50.833 195.2 2.7 207 12.3
2009-04-23 08:13:44 51°15.089 2°50.831 193.3 2.6 204 12.4
2009-04-23 08:13:50 51°15.085 2°50.828 191.5 2.6 204 12.5
2009-04-23 08:13:55 51°15.082 2°50.826 189.8 2.6 202 12.5
2009-04-23 08:14:00 51°15.078 2°50.824 188.8 2.7 200 12.4
2009-04-23 08:14:04 51°15.075 2°50.822 188.1 2.8 200 12.4
2009-04-23 08:14:10 51°15.071 2°50.82 187.3 2.8 200 12.4
2009-04-23 08:14:15 51°15.067 2°50.817 187.1 2.8 199 12.4
2009-04-23 08:14:20 51°15.064 2°50.815 186.9 2.8 199 12.4
2009-04-23 08:14:25 51°15.06 2°50.813 186.6 2.7 199 12.4
2009-04-23 08:14:30 51°15.056 2°50.812 186.2 2.7 198 12.5
2009-04-23 08:14:35 51°15.053 2°50.81 185.9 2.7 198 12.4
2009-04-23 08:14:40 51°15.049 2°50.808 185.6 2.7 198 12.4
2009-04-23 08:14:44 51°15.046 2°50.807 185.2 2.7 197 12.4
2009-04-23 08:14:50 51°15.042 2°50.804 185 2.7 198 12.5
2009-04-23 08:14:55 51°15.039 2°50.803 184.4 2.6 198 12.4
2009-04-23 08:14:59 51°15.036 2°50.801 184.1 2.6 198 12.5
2009-04-23 08:15:04 51°15.032 2°50.8 183.7 2.6 198 12.4
2009-04-23 08:15:10 51°15.028 2°50.798 183.3 2.6 197 12.5
2009-04-23 08:15:15 51°15.025 2°50.796 182.8 2.5 197 12.5
2009-04-23 08:15:19 51°15.022 2°50.795 182.3 2.5 197 12.4
2009-04-23 08:15:25 51°15.018 2°50.793 181.7 2.4 196 12.4
2009-04-23 08:15:30 51°15.015 2°50.791 181.2 2.4 197 12.4
2009-04-23 08:15:35 51°15.012 2°50.79 180.6 2.4 195 12.4
2009-04-23 08:15:40 51°15.009 2°50.789 180.2 2.4 196 12.3
2009-04-23 08:15:44 51°15.006 2°50.787 180 2.4 195 12.3
2009-04-23 08:15:50 51°15.002 2°50.786 179.9 2.6 194 12.3
2009-04-23 08:15:55 51°14.998 2°50.784 179.9 2.7 193 12.4
2009-04-23 08:16:00 51°14.994 2°50.783 180.1 2.8 194 12.3
2009-04-23 08:16:04 51°14.991 2°50.782 180.5 3 192 12.3
2009-04-23 08:16:10 51°14.986 2°50.78 180.9 3.1 194 12.4
2009-04-23 08:16:15 51°14.982 2°50.778 181.6 3.1 192 12.3
2009-04-23 08:16:20 51°14.978 2°50.777 182.3 3.2 194 12.3
2009-04-23 08:16:24 51°14.974 2°50.775 183.1 3.3 193 12.3
2009-04-23 08:16:30 51°14.968 2°50.773 183.9 3.4 194 12.3
2009-04-23 08:16:35 51°14.964 2°50.772 185 3.5 194 12.3
2009-04-23 08:16:40 51°14.959 2°50.769 185.9 3.6 195 12.2
2009-04-23 08:16:44 51°14.955 2°50.768 186.9 3.6 195 12.2
2009-04-23 08:16:50 51°14.949 2°50.765 187.9 3.7 197 12.2
2009-04-23 08:16:55 51°14.944 2°50.763 188.9 3.7 196 12.2
2009-04-23 08:17:00 51°14.939 2°50.76 190.2 3.8 198 12.2
2009-04-23 08:17:04 51°14.935 2°50.757 191.3 3.9 199 12.2
2009-04-23 08:17:10 51°14.929 2°50.754 192.4 3.9 200 12.2
2009-04-23 08:17:15 51°14.924 2°50.751 193.6 3.9 200 12.2
2009-04-23 08:17:19 51°14.92 2°50.748 194.9 3.9 202 12.2
2009-04-23 08:17:25 51°14.914 2°50.744 195.9 4 202 12.2
2009-04-23 08:17:30 51°14.908 2°50.741 196.8 4 204 12.2
2009-04-23 08:17:35 51°14.903 2°50.737 197.7 4 204 12.1
2009-04-23 08:17:39 51°14.899 2°50.734 198.7 4.1 205 12.1
2009-04-23 08:17:45 51°14.893 2°50.729 199.3 4.1 205 12.1
2009-04-23 08:17:50 51°14.888 2°50.725 200.4 4.1 206 12.1
2009-04-23 08:17:55 51°14.883 2°50.721 201.2 4.1 207 12.1
2009-04-23 08:18:00 51°14.878 2°50.717 202 4.1 208 12.1
2009-04-23 08:18:04 51°14.874 2°50.714 202.9 4.1 208 12.1
2009-04-23 08:18:10 51°14.868 2°50.708 204 4.1 210 12.1
2009-04-23 08:18:15 51°14.863 2°50.704 205.1 4.1 210 12.1
2009-04-23 08:18:20 51°14.858 2°50.699 206.2 4.1 211 12
2009-04-23 08:18:24 51°14.854 2°50.695 207.2 4.1 212 12.1
2009-04-23 08:18:30 51°14.848 2°50.689 208.3 4.2 213 12.1
2009-04-23 08:18:35 51°14.844 2°50.684 209.4 4.2 214 12.1
2009-04-23 08:18:40 51°14.839 2°50.678 210.7 4.2 215 12
2009-04-23 08:18:45 51°14.834 2°50.673 211.9 4.1 216 12.1
2009-04-23 08:18:50 51°14.83 2°50.667 213 4.1 216 12.1
2009-04-23 08:18:55 51°14.825 2°50.661 214.2 4.1 219 12
2009-04-23 08:19:00 51°14.821 2°50.656 215.1 4.1 218 12
2009-04-23 08:19:04 51°14.817 2°50.652 216 4 219 12.1
2009-04-23 08:19:10 51°14.812 2°50.645 216.8 4 219 12
2009-04-23 08:19:15 51°14.808 2°50.639 217.3 4 221 12
2009-04-23 08:19:20 51°14.804 2°50.633 218 3.9 220 12
2009-04-23 08:19:24 51°14.801 2°50.628 218.6 3.9 222 12
2009-04-23 08:19:30 51°14.796 2°50.621 219.4 3.9 223 12
2009-04-23 08:19:35 51°14.792 2°50.615 219.7 3.9 224 12
2009-04-23 08:19:40 51°14.788 2°50.61 220.3 3.9 222 12
2009-04-23 08:19:44 51°14.785 2°50.605 220.9 3.9 224 12
2009-04-23 08:19:50 51°14.78 2°50.598 221.2 3.9 223 12
2009-04-23 08:19:55 51°14.777 2°50.592 221.5 3.9 225 12
2009-04-23 08:20:00 51°14.773 2°50.586 221.8 3.9 223 12.1
2009-04-23 08:20:04 51°14.77 2°50.581 222.3 3.8 225 12
2009-04-23 08:20:10 51°14.765 2°50.574 222.6 3.8 226 12
2009-04-23 08:20:15 51°14.762 2°50.568 222.9 3.8 225 12
2009-04-23 08:20:20 51°14.758 2°50.562 223.3 3.8 226 12
2009-04-23 08:20:24 51°14.755 2°50.557 223.7 3.8 227 12
2009-04-23 08:20:30 51°14.751 2°50.55 224.1 3.7 226 12
2009-04-23 08:20:35 51°14.747 2°50.544 224.8 3.7 227 12
2009-04-23 08:20:40 51°14.744 2°50.538 225.4 3.7 227 12
2009-04-23 08:20:44 51°14.741 2°50.533 225.9 3.7 228 12
2009-04-23 08:20:50 51°14.737 2°50.526 226.2 3.7 228 12
2009-04-23 08:20:55 51°14.733 2°50.52 226.5 3.6 227 12
2009-04-23 08:21:00 51°14.73 2°50.514 226.5 3.6 228 12
2009-04-23 08:21:05 51°14.727 2°50.508 226.4 3.6 228 12
2009-04-23 08:21:10 51°14.723 2°50.503 226.2 3.6 227 11.9
2009-04-23 08:21:15 51°14.72 2°50.497 226.1 3.6 228 12
2009-04-23 08:21:20 51°14.716 2°50.491 225.8 3.6 226 12
2009-04-23 08:21:24 51°14.714 2°50.486 225.6 3.5 228 11.9
2009-04-23 08:21:30 51°14.71 2°50.479 225.3 3.6 227 12
2009-04-23 08:21:35 51°14.706 2°50.474 225.2 3.6 227 12
2009-04-23 08:21:40 51°14.703 2°50.468 225.1 3.5 227 11.9
2009-04-23 08:21:44 51°14.7 2°50.463 225.1 3.5 227 11.9
2009-04-23 08:21:50 51°14.696 2°50.457 225.1 3.5 226 11.9
2009-04-23 08:21:55 51°14.693 2°50.451 225.2 3.5 227 11.9
2009-04-23 08:22:00 51°14.69 2°50.445 225.1 3.5 227 11.9
2009-04-23 08:22:05 51°14.686 2°50.439 225.1 3.5 228 11.9
2009-04-23 08:22:10 51°14.683 2°50.434 225 3.5 227 11.9
2009-04-23 08:22:15 51°14.68 2°50.428 225 3.5 227 11.9
2009-04-23 08:22:20 51°14.676 2°50.422 225 3.5 228 11.9
2009-04-23 08:22:24 51°14.674 2°50.418 225.1 3.5 227 11.9
2009-04-23 08:22:30 51°14.67 2°50.411 225.2 3.5 227 11.9
2009-04-23 08:22:35 51°14.667 2°50.405 225.3 3.5 228 11.9
2009-04-23 08:22:40 51°14.663 2°50.4 225.5 3.5 227 12
2009-04-23 08:22:44 51°14.661 2°50.395 225.6 3.5 229 11.9
2009-04-23 08:22:50 51°14.657 2°50.388 225.8 3.5 227 11.9
2009-04-23 08:22:55 51°14.654 2°50.382 225.8 3.5 229 11.9
2009-04-23 08:23:00 51°14.65 2°50.377 225.8 3.5 227 11.9
2009-04-23 08:23:04 51°14.648 2°50.372 226 3.5 228 11.9
2009-04-23 08:23:10 51°14.644 2°50.365 226 3.5 228 11.9
2009-04-23 08:23:15 51°14.641 2°50.359 226.2 3.5 229 11.9
2009-04-23 08:23:20 51°14.637 2°50.354 226.3 3.5 228 11.8
2009-04-23 08:23:24 51°14.635 2°50.349 226.3 3.5 229 11.9
2009-04-23 08:23:30 51°14.631 2°50.342 226.4 3.5 228 11.9
2009-04-23 08:23:35 51°14.628 2°50.336 226.4 3.5 229 11.9
2009-04-23 08:23:40 51°14.625 2°50.331 226.4 3.5 228 11.9
2009-04-23 08:23:44 51°14.622 2°50.326 226.4 3.5 229 11.9
2009-04-23 08:23:50 51°14.619 2°50.319 226.4 3.5 229 11.8
2009-04-23 08:23:55 51°14.615 2°50.313 226.3 3.5 229 11.9
2009-04-23 08:24:00 51°14.612 2°50.308 226.2 3.4 227 11.9
2009-04-23 08:24:04 51°14.61 2°50.303 226.2 3.5 229 11.8
2009-04-23 08:24:10 51°14.606 2°50.296 225.9 3.5 228 11.9
2009-04-23 08:24:15 51°14.603 2°50.291 225.9 3.5 228 11.8
2009-04-23 08:24:19 51°14.6 2°50.286 225.9 3.5 228 11.9
2009-04-23 08:24:25 51°14.596 2°50.279 225.8 3.5 228 11.8
2009-04-23 08:24:30 51°14.593 2°50.274 225.8 3.4 227 11.9
2009-04-23 08:24:35 51°14.59 2°50.268 225.8 3.5 227 11.8
2009-04-23 08:24:40 51°14.586 2°50.262 225.7 3.5 228 11.8
2009-04-23 08:24:44 51°14.584 2°50.258 225.5 3.5 226 11.9
2009-04-23 08:24:50 51°14.58 2°50.251 225.4 3.5 226 11.8
2009-04-23 08:24:55 51°14.577 2°50.245 225.4 3.5 229 11.8
2009-04-23 08:25:00 51°14.573 2°50.24 225.3 3.4 227 11.8
2009-04-23 08:25:04 51°14.571 2°50.235 225.3 3.4 227 11.8
2009-04-23 08:25:10 51°14.567 2°50.228 225.1 3.5 228 11.8
2009-04-23 08:25:15 51°14.564 2°50.223 225.1 3.4 226 11.7
2009-04-23 08:25:20 51°14.56 2°50.217 225.1 3.5 228 11.7
2009-04-23 08:25:25 51°14.557 2°50.211 225.1 3.5 227 11.7
2009-04-23 08:25:30 51°14.554 2°50.206 225 3.5 227 11.7
2009-04-23 08:25:35 51°14.551 2°50.2 225 3.5 227 11.7
2009-04-23 08:25:40 51°14.547 2°50.195 224.8 3.5 227 11.7
2009-04-23 08:25:44 51°14.545 2°50.19 225.1 3.5 225 11.7
2009-04-23 08:25:50 51°14.541 2°50.183 225 3.5 229 11.7
2009-04-23 08:25:55 51°14.537 2°50.178 225.1 3.5 225 11.7
2009-04-23 08:26:00 51°14.534 2°50.172 225.1 3.5 228 11.7
2009-04-23 08:26:04 51°14.532 2°50.168 225.1 3.4 226 11.7
2009-04-23 08:26:10 51°14.528 2°50.161 225.1 3.4 227 11.6
2009-04-23 08:26:15 51°14.524 2°50.156 225.1 3.4 226 11.6
2009-04-23 08:26:20 51°14.521 2°50.15 225.1 3.5 228 11.6
2009-04-23 08:26:24 51°14.519 2°50.146 225.1 3.4 227 11.6
2009-04-23 08:26:30 51°14.515 2°50.139 225.8 3.4 229 11.6
2009-04-23 08:26:35 51°14.512 2°50.133 226.6 3.5 229 11.6
2009-04-23 08:26:39 51°14.509 2°50.129 227.7 3.4 230 11.7
2009-04-23 08:26:45 51°14.505 2°50.122 228.8 3.4 229 11.6
2009-04-23 08:26:50 51°14.502 2°50.116 229.8 3.4 231 11.6
2009-04-23 08:26:55 51°14.499 2°50.11 230.2 3.4 231 11.6
2009-04-23 08:27:00 51°14.496 2°50.104 231.4 3.4 231 11.6
2009-04-23 08:27:04 51°14.494 2°50.099 231.7 3.4 234 11.6
2009-04-23 08:27:10 51°14.491 2°50.092 232.5 3.4 233 11.6
2009-04-23 08:27:15 51°14.488 2°50.086 233.4 3.4 234 11.6
2009-04-23 08:27:20 51°14.485 2°50.08 233.7 3.4 234 11.6
2009-04-23 08:27:24 51°14.483 2°50.075 234.1 3.4 235 11.6
2009-04-23 08:27:30 51°14.48 2°50.067 234.5 3.4 233 11.6
2009-04-23 08:27:35 51°14.477 2°50.061 234.9 3.4 236 11.6
2009-04-23 08:27:40 51°14.474 2°50.055 235.2 3.4 235 11.6
2009-04-23 08:27:45 51°14.472 2°50.049 235.5 3.4 236 11.6
2009-04-23 08:27:50 51°14.469 2°50.043 235.6 3.4 236 11.6
2009-04-23 08:27:55 51°14.466 2°50.036 235.7 3.4 236 11.6
2009-04-23 08:28:00 51°14.464 2°50.03 235.8 3.4 236 11.6
2009-04-23 08:28:04 51°14.462 2°50.025 236 3.4 237 11.7
2009-04-23 08:28:10 51°14.458 2°50.017 236 3.5 236 11.6
2009-04-23 08:28:15 51°14.456 2°50.011 236 3.5 237 11.6
2009-04-23 08:28:20 51°14.453 2°50.004 236 3.5 236 11.6
2009-04-23 08:28:24 51°14.451 2°49.999 235.8 3.6 237 11.6
2009-04-23 08:28:30 51°14.448 2°49.991 235.7 3.6 236 11.7
2009-04-23 08:28:35 51°14.445 2°49.984 235.6 3.6 236 11.6
2009-04-23 08:28:40 51°14.442 2°49.978 235.4 3.6 237 11.7
2009-04-23 08:28:44 51°14.44 2°49.972 235.4 3.6 236 11.6
2009-04-23 08:28:50 51°14.436 2°49.964 235.3 3.7 237 11.6
2009-04-23 08:28:55 51°14.434 2°49.957 235.3 3.7 237 11.6
2009-04-23 08:29:00 51°14.431 2°49.95 235.6 3.7 235 11.6
2009-04-23 08:29:04 51°14.429 2°49.945 235.5 3.7 237 11.6
2009-04-23 08:29:10 51°14.425 2°49.937 235.6 3.7 237 11.7
2009-04-23 08:29:15 51°14.422 2°49.93 236 3.7 235 11.7
2009-04-23 08:29:20 51°14.419 2°49.923 235.7 3.7 237 11.6
2009-04-23 08:29:24 51°14.417 2°49.918 235.7 3.7 236 11.6
2009-04-23 08:29:30 51°14.414 2°49.909 235.8 3.8 237 11.6
2009-04-23 08:29:35 51°14.411 2°49.902 235.9 3.8 236 11.7
2009-04-23 08:29:40 51°14.408 2°49.896 236 3.8 236 11.6
2009-04-23 08:29:44 51°14.405 2°49.89 235.7 3.8 236 11.6
2009-04-23 08:29:50 51°14.402 2°49.882 235.6 3.8 236 11.6
2009-04-23 08:29:55 51°14.399 2°49.875 235.6 3.8 235 11.6
2009-04-23 08:30:00 51°14.396 2°49.868 235.4 3.8 237 11.6
2009-04-23 08:30:05 51°14.393 2°49.861 235.3 3.8 235 11.7
2009-04-23 08:30:10 51°14.39 2°49.854 235.3 3.8 236 11.7
2009-04-23 08:30:15 51°14.387 2°49.847 235.3 3.8 236 11.7
2009-04-23 08:30:20 51°14.384 2°49.84 235.5 3.8 236 11.6
2009-04-23 08:30:24 51°14.382 2°49.835 235.4 3.8 236 11.6
2009-04-23 08:30:30 51°14.378 2°49.826 235.5 3.8 236 11.7
2009-04-23 08:30:35 51°14.375 2°49.819 235.6 3.8 236 11.6
2009-04-23 08:30:40 51°14.373 2°49.812 235.6 3.8 238 11.7
2009-04-23 08:30:44 51°14.37 2°49.807 235.7 3.8 236 11.6
2009-04-23 08:30:50 51°14.367 2°49.798 235.8 3.8 237 11.6
2009-04-23 08:30:55 51°14.364 2°49.791 235.9 3.8 236 11.6
2009-04-23 08:30:59 51°14.361 2°49.785 235.9 3.8 237 11.7
2009-04-23 08:31:05 51°14.358 2°49.777 235.8 3.8 236 11.7
2009-04-23 08:31:10 51°14.355 2°49.77 235.8 3.8 235 11.7
2009-04-23 08:31:15 51°14.352 2°49.763 235.7 3.8 237 11.7
2009-04-23 08:31:20 51°14.349 2°49.756 235.5 3.8 237 11.6
2009-04-23 08:31:24 51°14.347 2°49.751 235.6 3.8 235 11.7
2009-04-23 08:31:30 51°14.343 2°49.742 235.4 3.8 237 11.7
2009-04-23 08:31:35 51°14.34 2°49.736 235.2 3.8 235 11.7
2009-04-23 08:31:40 51°14.338 2°49.728 235.2 3.8 237 11.6
2009-04-23 08:31:44 51°14.335 2°49.723 235.2 3.8 235 11.7
2009-04-23 08:31:50 51°14.332 2°49.715 235.2 3.8 235 11.7
2009-04-23 08:31:55 51°14.329 2°49.708 235 3.8 237 11.7
2009-04-23 08:32:00 51°14.326 2°49.701 235.2 3.8 235 11.7
2009-04-23 08:32:04 51°14.324 2°49.695 235 3.8 236 11.7
2009-04-23 08:32:10 51°14.32 2°49.687 234.9 3.8 235 11.7
2009-04-23 08:32:15 51°14.317 2°49.68 234.8 3.8 236 11.7
2009-04-23 08:32:20 51°14.314 2°49.673 234.5 3.8 235 11.7
2009-04-23 08:32:24 51°14.312 2°49.668 234.5 3.8 235 11.7
2009-04-23 08:32:30 51°14.308 2°49.659 234.5 3.8 235 11.7
2009-04-23 08:32:35 51°14.305 2°49.652 234.3 3.8 236 11.7
2009-04-23 08:32:40 51°14.302 2°49.646 234.4 3.8 235 11.7
2009-04-23 08:32:44 51°14.3 2°49.64 234.5 3.8 236 11.7
2009-04-23 08:32:50 51°14.296 2°49.632 234.4 3.8 236 11.7
2009-04-23 08:32:55 51°14.293 2°49.625 234.5 3.8 234 11.6
2009-04-23 08:33:00 51°14.29 2°49.618 234.5 3.8 236 11.6
2009-04-23 08:33:04 51°14.288 2°49.613 234.3 3.8 236 11.7
2009-04-23 08:33:10 51°14.284 2°49.604 234.3 3.8 235 11.7
2009-04-23 08:33:15 51°14.281 2°49.597 234.3 3.8 236 11.6
2009-04-23 08:33:20 51°14.278 2°49.59 234.3 3.8 235 11.6
2009-04-23 08:33:25 51°14.275 2°49.584 234.3 3.8 235 11.6
2009-04-23 08:33:30 51°14.272 2°49.577 234.2 3.8 235 11.6
2009-04-23 08:33:35 51°14.269 2°49.57 234.3 3.8 235 11.6
2009-04-23 08:33:40 51°14.266 2°49.563 234.3 3.8 236 11.6
2009-04-23 08:33:44 51°14.264 2°49.557 234.4 3.8 235 11.6
2009-04-23 08:33:50 51°14.26 2°49.549 234.5 3.8 236 11.6
2009-04-23 08:33:55 51°14.257 2°49.542 234.5 3.8 235 11.6
2009-04-23 08:34:00 51°14.254 2°49.535 234.5 3.8 235 11.6
2009-04-23 08:34:04 51°14.252 2°49.53 234.5 3.8 237 11.6
2009-04-23 08:34:10 51°14.248 2°49.522 234.6 3.8 235 11.6
2009-04-23 08:34:15 51°14.245 2°49.515 234.6 3.8 235 11.6
2009-04-23 08:34:20 51°14.242 2°49.508 234.4 3.8 235 11.7
2009-04-23 08:34:25 51°14.239 2°49.501 234.5 3.8 235 11.7
2009-04-23 08:34:30 51°14.236 2°49.494 234.5 3.8 236 11.6
2009-04-23 08:34:35 51°14.233 2°49.487 234.3 3.8 235 11.6
2009-04-23 08:34:40 51°14.231 2°49.48 234.3 3.8 236 11.6
2009-04-23 08:34:44 51°14.228 2°49.475 234.3 3.8 235 11.6
2009-04-23 08:34:50 51°14.225 2°49.467 234.4 3.8 236 11.6
2009-04-23 08:34:55 51°14.222 2°49.46 234.4 3.8 235 11.6
2009-04-23 08:35:00 51°14.219 2°49.453 234.4 3.8 235 11.6
2009-04-23 08:35:04 51°14.216 2°49.447 234.2 3.8 236 11.5
2009-04-23 08:35:10 51°14.213 2°49.439 234.1 3.7 235 11.6
2009-04-23 08:35:15 51°14.21 2°49.432 234.2 3.8 235 11.6
2009-04-23 08:35:20 51°14.207 2°49.425 234.2 3.8 236 11.6
2009-04-23 08:35:24 51°14.204 2°49.42 234.2 3.8 235 11.6
2009-04-23 08:35:30 51°14.201 2°49.412 234.1 3.8 234 11.6
2009-04-23 08:35:35 51°14.198 2°49.405 234 3.8 236 11.5
2009-04-23 08:35:39 51°14.195 2°49.4 234.1 3.8 235 11.6
2009-04-23 08:35:44 51°14.192 2°49.393 233.9 3.7 235 11.6
2009-04-23 08:35:50 51°14.188 2°49.385 233.9 3.8 234 11.5
2009-04-23 08:35:55 51°14.185 2°49.378 233.9 3.7 235 11.6
2009-04-23 08:36:00 51°14.183 2°49.371 233.9 3.7 234 11.5
2009-04-23 08:36:04 51°14.18 2°49.366 233.9 3.7 235 11.5
2009-04-23 08:36:10 51°14.176 2°49.357 233.9 3.7 235 11.5
2009-04-23 08:36:15 51°14.174 2°49.351 233.9 3.7 235 11.6
2009-04-23 08:36:20 51°14.171 2°49.344 233.9 3.7 235 11.5
2009-04-23 08:36:24 51°14.168 2°49.339 233.9 3.7 235 11.5
2009-04-23 08:36:30 51°14.165 2°49.331 233.9 3.7 235 11.5
2009-04-23 08:36:35 51°14.162 2°49.324 233.9 3.7 234 11.5
2009-04-23 08:36:40 51°14.159 2°49.317 233.9 3.7 234 11.5
2009-04-23 08:36:45 51°14.156 2°49.31 233.9 3.7 235 11.5
2009-04-23 08:36:50 51°14.153 2°49.304 233.8 3.7 234 11.5
2009-04-23 08:36:55 51°14.15 2°49.297 233.8 3.7 235 11.5
2009-04-23 08:37:00 51°14.147 2°49.29 233.8 3.7 235 11.5
2009-04-23 08:37:04 51°14.144 2°49.285 233.8 3.7 234 11.5
2009-04-23 08:37:10 51°14.141 2°49.277 234.1 3.7 235 11.5
2009-04-23 08:37:15 51°14.138 2°49.27 234.8 3.8 236 11.5
2009-04-23 08:37:20 51°14.135 2°49.263 235.5 3.7 237 11.5
2009-04-23 08:37:24 51°14.133 2°49.258 236.4 3.7 237 11.5
2009-04-23 08:37:30 51°14.13 2°49.249 237.1 3.7 238 11.5
2009-04-23 08:37:35 51°14.127 2°49.242 237.8 3.7 238 11.5
2009-04-23 08:37:40 51°14.124 2°49.235 238.5 3.7 239 11.4
2009-04-23 08:37:45 51°14.121 2°49.228 238.9 3.7 239 11.5
2009-04-23 08:37:50 51°14.119 2°49.221 239.6 3.7 239 11.5
2009-04-23 08:37:55 51°14.116 2°49.214 239.6 3.7 240 11.5
2009-04-23 08:38:00 51°14.114 2°49.207 239.8 3.7 240 11.6
2009-04-23 08:38:04 51°14.112 2°49.201 239.8 3.7 240 11.6
2009-04-23 08:38:10 51°14.109 2°49.193 239.7 3.7 239 11.6
2009-04-23 08:38:15 51°14.106 2°49.186 239.6 3.7 240 11.5
2009-04-23 08:38:20 51°14.103 2°49.179 239.2 3.7 240 11.5
2009-04-23 08:38:24 51°14.101 2°49.173 239.2 3.7 239 11.6
2009-04-23 08:38:30 51°14.098 2°49.165 238.9 3.7 239 11.5
2009-04-23 08:38:35 51°14.095 2°49.158 238.9 3.7 239 11.4
2009-04-23 08:38:40 51°14.093 2°49.151 239 3.7 239 11.5
2009-04-23 08:38:44 51°14.091 2°49.145 239 3.6 239 11.5
2009-04-23 08:38:50 51°14.088 2°49.137 239.2 3.7 239 11.5
2009-04-23 08:38:55 51°14.085 2°49.13 239.3 3.7 239 11.6
2009-04-23 08:39:00 51°14.082 2°49.123 239.6 3.6 240 11.5
2009-04-23 08:39:05 51°14.08 2°49.116 239.6 3.7 240 11.5
2009-04-23 08:39:10 51°14.077 2°49.109 239.9 3.6 240 11.5
2009-04-23 08:39:15 51°14.075 2°49.102 240 3.7 239 11.5
2009-04-23 08:39:20 51°14.072 2°49.095 240 3.7 241 11.6
2009-04-23 08:39:24 51°14.07 2°49.089 240.2 3.6 238 11.6
2009-04-23 08:39:30 51°14.067 2°49.081 240.2 3.6 240 11.6
2009-04-23 08:39:35 51°14.064 2°49.074 240 3.6 239 11.6
2009-04-23 08:39:40 51°14.062 2°49.067 240 3.6 239 11.6
2009-04-23 08:39:44 51°14.06 2°49.062 240 3.6 239 11.5
2009-04-23 08:39:50 51°14.057 2°49.053 239.8 3.6 239 11.6
2009-04-23 08:39:55 51°14.054 2°49.046 239.7 3.6 239 11.6
2009-04-23 08:40:00 51°14.052 2°49.039 239.7 3.6 240 11.6
2009-04-23 08:40:05 51°14.049 2°49.033 239.6 3.6 239 11.6
2009-04-23 08:40:10 51°14.046 2°49.026 239.6 3.6 239 11.5
2009-04-23 08:40:15 51°14.044 2°49.019 239.5 3.6 239 11.6
2009-04-23 08:40:20 51°14.041 2°49.012 239.5 3.6 238 11.6
2009-04-23 08:40:24 51°14.039 2°49.006 239.4 3.6 239 11.6
2009-04-23 08:40:30 51°14.036 2°48.998 239.5 3.6 238 11.6
2009-04-23 08:40:35 51°14.034 2°48.991 239.6 3.6 241 11.6
2009-04-23 08:40:40 51°14.031 2°48.984 239.6 3.6 239 11.6
2009-04-23 08:40:45 51°14.028 2°48.978 239.8 3.6 238 11.6
2009-04-23 08:40:50 51°14.026 2°48.971 239.7 3.6 240 11.6
2009-04-23 08:40:55 51°14.023 2°48.964 239.7 3.6 238 11.6
2009-04-23 08:41:00 51°14.021 2°48.957 239.6 3.6 239 11.6
2009-04-23 08:41:04 51°14.019 2°48.952 239.6 3.6 239 11.6
2009-04-23 08:41:10 51°14.016 2°48.944 239.6 3.6 239 11.7
2009-04-23 08:41:15 51°14.013 2°48.937 239.3 3.6 238 11.6
2009-04-23 08:41:20 51°14.01 2°48.93 239.1 3.6 239 11.7
2009-04-23 08:41:24 51°14.008 2°48.925 238.9 3.6 239 11.7
2009-04-23 08:41:30 51°14.005 2°48.917 239.2 3.6 237 11.6
2009-04-23 08:41:35 51°14.003 2°48.91 239.1 3.6 240 11.6
2009-04-23 08:41:40 51°14 2°48.903 239.1 3.6 238 11.7
2009-04-23 08:41:44 51°13.998 2°48.898 239.3 3.6 240 11.7
2009-04-23 08:41:50 51°13.995 2°48.89 239.4 3.6 239 11.7
2009-04-23 08:41:55 51°13.992 2°48.883 239.6 3.6 238 11.7
2009-04-23 08:42:00 51°13.99 2°48.876 239.6 3.6 238 11.6
2009-04-23 08:42:04 51°13.988 2°48.871 239.6 3.6 239 11.7
2009-04-23 08:42:10 51°13.985 2°48.863 239.5 3.5 240 11.6
2009-04-23 08:42:15 51°13.982 2°48.857 239.3 3.5 237 11.7
2009-04-23 08:42:20 51°13.98 2°48.85 239.1 3.5 240 11.7
2009-04-23 08:42:25 51°13.977 2°48.843 238.9 3.5 238 11.7
2009-04-23 08:42:30 51°13.975 2°48.836 238.9 3.5 239 11.6
2009-04-23 08:42:35 51°13.972 2°48.83 238.9 3.5 238 11.6
2009-04-23 08:42:40 51°13.97 2°48.823 239.1 3.6 240 11.7
2009-04-23 08:42:44 51°13.968 2°48.818 239.3 3.5 239 11.7
2009-04-23 08:42:50 51°13.965 2°48.81 239.5 3.5 238 11.7
2009-04-23 08:42:55 51°13.962 2°48.803 239.4 3.5 239 11.7
2009-04-23 08:43:00 51°13.96 2°48.797 239.2 3.5 239 11.7
2009-04-23 08:43:04 51°13.958 2°48.791 239.3 3.5 239 11.6
2009-04-23 08:43:10 51°13.955 2°48.783 239.3 3.5 240 11.7
2009-04-23 08:43:15 51°13.952 2°48.777 239.4 3.5 238 11.7
2009-04-23 08:43:20 51°13.95 2°48.77 239.4 3.5 240 11.7
2009-04-23 08:43:25 51°13.947 2°48.764 239.6 3.5 238 11.6
2009-04-23 08:43:30 51°13.945 2°48.757 239.6 3.5 240 11.7
2009-04-23 08:43:35 51°13.942 2°48.75 239.6 3.5 239 11.7
2009-04-23 08:43:40 51°13.94 2°48.743 239.5 3.5 239 11.7
2009-04-23 08:43:44 51°13.938 2°48.738 239.6 3.5 240 11.8
2009-04-23 08:43:50 51°13.935 2°48.73 239.5 3.5 239 11.7
2009-04-23 08:43:55 51°13.932 2°48.723 239.5 3.5 239 11.7
2009-04-23 08:44:00 51°13.93 2°48.717 239.4 3.5 238 11.7
2009-04-23 08:44:04 51°13.928 2°48.712 239.2 3.5 240 11.6
2009-04-23 08:44:10 51°13.925 2°48.704 239.3 3.5 239 11.7
2009-04-23 08:44:15 51°13.922 2°48.697 239.4 3.5 239 11.6
2009-04-23 08:44:20 51°13.92 2°48.69 239.5 3.5 239 11.7
2009-04-23 08:44:24 51°13.918 2°48.685 239.4 3.5 240 11.7
2009-04-23 08:44:30 51°13.915 2°48.677 239.5 3.5 239 11.7
2009-04-23 08:44:35 51°13.913 2°48.67 239.6 3.5 240 11.6
2009-04-23 08:44:40 51°13.91 2°48.664 239.6 3.5 238 11.7
2009-04-23 08:44:44 51°13.908 2°48.659 239.7 3.5 240 11.7
2009-04-23 08:44:50 51°13.905 2°48.651 239.6 3.5 240 11.8
2009-04-23 08:44:55 51°13.903 2°48.644 239.7 3.5 240 11.7
2009-04-23 08:45:00 51°13.9 2°48.637 239.7 3.5 238 11.7
2009-04-23 08:45:04 51°13.898 2°48.632 239.7 3.5 240 11.9
2009-04-23 08:45:10 51°13.895 2°48.624 239.6 3.5 240 11.8
2009-04-23 08:45:15 51°13.893 2°48.618 239.6 3.5 240 11.7
2009-04-23 08:45:20 51°13.89 2°48.611 239.6 3.5 238 11.8
2009-04-23 08:45:25 51°13.888 2°48.604 239.6 3.5 239 11.8
2009-04-23 08:45:30 51°13.885 2°48.598 239.7 3.5 240 11.8
2009-04-23 08:45:35 51°13.883 2°48.591 239.7 3.5 239 11.8
2009-04-23 08:45:40 51°13.881 2°48.584 239.7 3.5 240 11.8
2009-04-23 08:45:45 51°13.878 2°48.578 239.8 3.5 240 11.8
2009-04-23 08:45:50 51°13.875 2°48.571 240 3.5 239 11.8
2009-04-23 08:45:55 51°13.873 2°48.564 239.9 3.5 240 11.8
2009-04-23 08:46:00 51°13.871 2°48.558 239.8 3.5 240 11.9
2009-04-23 08:46:04 51°13.869 2°48.553 239.8 3.5 238 11.8
2009-04-23 08:46:10 51°13.866 2°48.545 239.7 3.5 240 11.8
2009-04-23 08:46:15 51°13.863 2°48.538 239.6 3.5 240 11.8
2009-04-23 08:46:20 51°13.861 2°48.531 239.6 3.5 239 11.8
2009-04-23 08:46:24 51°13.859 2°48.526 239.6 3.5 239 11.8
2009-04-23 08:46:30 51°13.856 2°48.518 239.6 3.5 240 11.9
2009-04-23 08:46:35 51°13.853 2°48.512 239.6 3.5 240 11.8
2009-04-23 08:46:40 51°13.851 2°48.505 239.5 3.5 239 11.9
2009-04-23 08:46:45 51°13.848 2°48.498 239.3 3.5 239 11.8
2009-04-23 08:46:50 51°13.846 2°48.492 239.3 3.5 239 11.9
2009-04-23 08:46:55 51°13.844 2°48.485 239.1 3.5 239 11.8
2009-04-23 08:47:00 51°13.841 2°48.479 238.9 3.5 239 11.8
2009-04-23 08:47:04 51°13.839 2°48.473 238.9 3.5 239 11.8
2009-04-23 08:47:10 51°13.836 2°48.465 239 3.5 240 11.8
2009-04-23 08:47:15 51°13.834 2°48.459 239 3.5 238 11.9
2009-04-23 08:47:20 51°13.831 2°48.452 238.9 3.5 241 11.9
2009-04-23 08:47:24 51°13.829 2°48.447 239 3.5 238 11.9
2009-04-23 08:47:30 51°13.826 2°48.439 239.1 3.5 239 11.9
2009-04-23 08:47:35 51°13.824 2°48.432 239 3.5 239 11.8
2009-04-23 08:47:40 51°13.822 2°48.426 239.1 3.5 240 11.9
2009-04-23 08:47:44 51°13.82 2°48.42 239.2 3.5 239 11.9
2009-04-23 08:47:50 51°13.817 2°48.413 239.6 3.5 241 11.9
2009-04-23 08:47:55 51°13.814 2°48.406 239.6 3.5 239 11.8
2009-04-23 08:48:00 51°13.812 2°48.399 239.7 3.5 241 11.9
2009-04-23 08:48:04 51°13.81 2°48.394 240.1 3.5 240 11.9
2009-04-23 08:48:10 51°13.808 2°48.386 240.2 3.4 243 11.9
2009-04-23 08:48:15 51°13.805 2°48.38 240.6 3.4 242 11.9
2009-04-23 08:48:20 51°13.803 2°48.373 241.3 3.4 242 11.9
2009-04-23 08:48:24 51°13.801 2°48.368 241.4 3.4 242 11.9
2009-04-23 08:48:30 51°13.799 2°48.36 241.8 3.4 243 11.9
2009-04-23 08:48:35 51°13.797 2°48.353 242 3.3 242 11.9
2009-04-23 08:48:40 51°13.794 2°48.347 242.3 3.3 243 11.9
2009-04-23 08:48:44 51°13.793 2°48.341 242.6 3.3 244 11.9
2009-04-23 08:48:50 51°13.79 2°48.333 243 3.3 243 11.9
2009-04-23 08:48:55 51°13.788 2°48.327 243.2 3.3 245 11.8
2009-04-23 08:49:00 51°13.786 2°48.32 243.6 3.3 244 11.9
2009-04-23 08:49:05 51°13.785 2°48.314 244 3.3 246 11.9
2009-04-23 08:49:10 51°13.783 2°48.307 244.2 3.3 246 12
2009-04-23 08:49:15 51°13.781 2°48.301 244.7 3.2 247 11.9
2009-04-23 08:49:20 51°13.779 2°48.294 245 3.2 246 11.9
2009-04-23 08:49:24 51°13.778 2°48.289 245.4 3.2 246 12
2009-04-23 08:49:30 51°13.776 2°48.281 245.8 3.2 246 11.9
2009-04-23 08:49:35 51°13.774 2°48.275 246 3.2 248 11.9
2009-04-23 08:49:40 51°13.772 2°48.268 246.5 3.2 248 12
2009-04-23 08:49:44 51°13.771 2°48.263 246.9 3.2 247 11.9
2009-04-23 08:49:50 51°13.769 2°48.255 247.1 3.2 248 12
2009-04-23 08:49:55 51°13.767 2°48.249 247.6 3.2 249 12
2009-04-23 08:50:00 51°13.766 2°48.242 248 3.2 249 11.9
2009-04-23 08:50:05 51°13.764 2°48.236 248.4 3.2 249 12
2009-04-23 08:50:10 51°13.763 2°48.229 248.9 3.2 250 12
2009-04-23 08:50:15 51°13.761 2°48.222 249.2 3.2 250 11.9
2009-04-23 08:50:20 51°13.76 2°48.216 249.7 3.2 251 12
2009-04-23 08:50:24 51°13.759 2°48.21 250.2 3.2 251 12
2009-04-23 08:50:30 51°13.757 2°48.202 250.7 3.2 253 12
2009-04-23 08:50:35 51°13.756 2°48.196 251.7 3.2 252 11.9
2009-04-23 08:50:40 51°13.755 2°48.189 252.7 3.2 255 11.9
2009-04-23 08:50:44 51°13.754 2°48.183 253.8 3.2 253 12
2009-04-23 08:50:50 51°13.752 2°48.175 255.1 3.2 256 12
2009-04-23 08:50:55 51°13.751 2°48.168 256.3 3.3 256 12
2009-04-23 08:51:00 51°13.75 2°48.161 257.5 3.3 256 12.1
2009-04-23 08:51:04 51°13.749 2°48.156 258.4 3.2 258 12.1
2009-04-23 08:51:10 51°13.748 2°48.147 259.4 3.1 258 12
2009-04-23 08:51:15 51°13.748 2°48.141 260.3 3.1 259 12.1
2009-04-23 08:51:20 51°13.747 2°48.134 260.8 3 261 12.1
2009-04-23 08:51:24 51°13.746 2°48.129 261.4 2.9 259 12.1
2009-04-23 08:51:30 51°13.746 2°48.122 262.1 2.9 262 12.2
2009-04-23 08:51:35 51°13.745 2°48.115 262.4 2.8 262 12.1
2009-04-23 08:51:40 51°13.744 2°48.109 263 2.8 260 12.1
2009-04-23 08:51:45 51°13.744 2°48.103 263.4 2.7 263 12.1
2009-04-23 08:51:50 51°13.743 2°48.097 263.7 2.7 263 12.1
2009-04-23 08:51:55 51°13.743 2°48.092 264.3 2.6 262 12.1
2009-04-23 08:52:00 51°13.742 2°48.086 264.4 2.6 264 12
2009-04-23 08:52:04 51°13.742 2°48.082 264.7 2.6 263 12.2
2009-04-23 08:52:10 51°13.741 2°48.075 265 2.5 264 12
2009-04-23 08:52:15 51°13.741 2°48.069 265 2.5 262 12.2
2009-04-23 08:52:20 51°13.741 2°48.064 265.2 2.5 264 11.9
2009-04-23 08:52:25 51°13.74 2°48.058 265.2 2.5 265 12.1
2009-04-23 08:52:30 51°13.74 2°48.053 265.3 2.4 264 12.1
2009-04-23 08:52:35 51°13.74 2°48.048 265.3 2.4 264 12
2009-04-23 08:52:40 51°13.739 2°48.043 265.5 2.3 263 12.2
2009-04-23 08:52:44 51°13.739 2°48.039 265.5 2.3 261 12
2009-04-23 08:52:50 51°13.738 2°48.032 265.5 2.3 266 12.2
2009-04-23 08:52:55 51°13.738 2°48.027 265.5 2.3 263 12
2009-04-23 08:53:00 51°13.738 2°48.023 265.5 2.2 264 12.2
2009-04-23 08:53:05 51°13.737 2°48.018 265.5 2.2 265 12.2
2009-04-23 08:53:10 51°13.737 2°48.013 265.5 2.2 261 12.1
2009-04-23 08:53:15 51°13.737 2°48.008 265.5 2.1 265 12.2
2009-04-23 08:53:20 51°13.737 2°48.003 265.5 2.1 265 12.1
2009-04-23 08:53:25 51°13.736 2°47.999 265.3 2 264 12.2
2009-04-23 08:53:30 51°13.736 2°47.994 265.3 2 265 12.2
2009-04-23 08:53:35 51°13.736 2°47.99 265.2 2 265 12.2
2009-04-23 08:53:40 51°13.736 2°47.986 265 1.9 264 12.1
2009-04-23 08:53:44 51°13.735 2°47.982 264.8 1.9 262 12.1
2009-04-23 08:53:50 51°13.735 2°47.978 264.5 1.8 264 12.1
2009-04-23 08:53:55 51°13.735 2°47.974 264.3 1.8 266 12.2
2009-04-23 08:54:00 51°13.734 2°47.97 263.9 1.8 261 12.2
2009-04-23 08:54:05 51°13.734 2°47.966 263.6 1.7 265 12.2
2009-04-23 08:54:10 51°13.734 2°47.963 263.1 1.7 265 12.2
2009-04-23 08:54:15 51°13.734 2°47.959 262.8 1.6 259 12.1
2009-04-23 08:54:20 51°13.733 2°47.955 262.3 1.6 264 12.1
2009-04-23 08:54:24 51°13.733 2°47.953 261.9 1.6 259 12.2
2009-04-23 08:54:30 51°13.733 2°47.949 261.3 1.5 261 12.1
2009-04-23 08:54:35 51°13.732 2°47.945 260.7 1.5 259 12.2
2009-04-23 08:54:40 51°13.732 2°47.942 260.1 1.5 261 12.3
2009-04-23 08:54:44 51°13.732 2°47.94 259.7 1.4 261 12.2
2009-04-23 08:54:50 51°13.731 2°47.936 259.1 1.4 259 12.3
2009-04-23 08:54:55 51°13.731 2°47.933 258.5 1.4 260 12.3
2009-04-23 08:55:00 51°13.73 2°47.93 258.2 1.3 257 12.2
2009-04-23 08:55:04 51°13.73 2°47.928 257.7 1.4 259 12.1
2009-04-23 08:55:10 51°13.73 2°47.924 257.3 1.3 256 12.3
2009-04-23 08:55:15 51°13.73 2°47.921 256.9 1.3 260 12.3
2009-04-23 08:55:20 51°13.729 2°47.919 256.3 1.4 257 12.3
2009-04-23 08:55:25 51°13.729 2°47.916 256 1.3 257 12.1
2009-04-23 08:55:30 51°13.728 2°47.913 255.6 1.4 257 12.2
2009-04-23 08:55:35 51°13.728 2°47.91 255.2 1.4 257 12.3
2009-04-23 08:55:40 51°13.728 2°47.907 255.2 1.4 258 12.3
2009-04-23 08:55:45 51°13.727 2°47.904 255.6 1.5 260 12.2
2009-04-23 08:55:50 51°13.727 2°47.9 256.7 1.8 261 12.3
2009-04-23 08:55:55 51°13.726 2°47.895 259.3 2 262 12.3
2009-04-23 08:56:00 51°13.726 2°47.89 263.2 2.2 266 12.3
2009-04-23 08:56:05 51°13.726 2°47.885 267.8 2.4 271 12.3
2009-04-23 08:56:10 51°13.727 2°47.88 273.1 2.5 276 12.4
2009-04-23 08:56:15 51°13.727 2°47.874 278.3 2.7 280 12.4
2009-04-23 08:56:20 51°13.729 2°47.868 283.8 2.7 287 12.3
2009-04-23 08:56:25 51°13.73 2°47.862 289.4 2.8 292 12.3
2009-04-23 08:56:30 51°13.732 2°47.857 295 2.9 298 12.3
2009-04-23 08:56:35 51°13.734 2°47.851 300.8 3 305 12.4
2009-04-23 08:56:40 51°13.737 2°47.846 306.6 3 308 12.4
2009-04-23 08:56:45 51°13.74 2°47.841 312.6 3.1 316 12.4
2009-04-23 08:56:50 51°13.743 2°47.837 318.5 3.1 322 12.4
2009-04-23 08:56:55 51°13.747 2°47.833 324.3 3.2 327 12.5
2009-04-23 08:57:00 51°13.751 2°47.83 330.1 3.5 333 12.5
2009-04-23 08:57:04 51°13.755 2°47.827 336.5 3.7 340 12.5
2009-04-23 08:57:10 51°13.761 2°47.825 343.8 3.9 348 12.4
2009-04-23 08:57:15 51°13.767 2°47.825 351.3 4.1 357 12.5
2009-04-23 08:57:20 51°13.773 2°47.825 359.4 4.3 4 12.5
2009-04-23 08:57:25 51°13.779 2°47.827 7.6 4.8 11 12.5
2009-04-23 08:57:30 51°13.786 2°47.831 14.3 5.3 14 12.4
2009-04-23 08:57:35 51°13.794 2°47.835 19.5 5.9 20 12.5
2009-04-23 08:57:40 51°13.803 2°47.839 21.1 6.4 16 12.5
2009-04-23 08:57:45 51°13.812 2°47.843 19 6.9 15 12.5
2009-04-23 08:57:50 51°13.822 2°47.848 18 7.5 16 12.4
2009-04-23 08:57:55 51°13.833 2°47.852 17.2 8 15 12.5
2009-04-23 08:58:00 51°13.844 2°47.857 16.8 8.4 15 12.5
2009-04-23 08:58:05 51°13.856 2°47.861 16.2 8.7 14 12.5
2009-04-23 08:58:10 51°13.868 2°47.866 15.6 9.1 14 12.5
2009-04-23 08:58:15 51°13.881 2°47.871 15.8 9.4 14 12.6
2009-04-23 08:58:20 51°13.894 2°47.878 17.5 9.7 17 12.5
2009-04-23 08:58:24 51°13.905 2°47.882 17.6 10.1 15 12.5
2009-04-23 08:58:30 51°13.921 2°47.89 17.5 10.3 16 12.6
2009-04-23 08:58:35 51°13.935 2°47.896 17.8 10.5 16 12.5
2009-04-23 08:58:40 51°13.949 2°47.903 18.2 10.8 17 12.4
2009-04-23 08:58:44 51°13.961 2°47.908 18.4 11.1 17 12.5
2009-04-23 08:58:50 51°13.979 2°47.917 18.9 11.4 17 12.5
2009-04-23 08:58:55 51°13.994 2°47.924 18.8 11.5 16 12.5
2009-04-23 08:59:00 51°14.01 2°47.932 18.4 11.6 17 12.4
2009-04-23 08:59:05 51°14.025 2°47.939 18.8 11.7 18 12.4
2009-04-23 08:59:10 51°14.041 2°47.949 20.5 11.8 20 12.4
2009-04-23 08:59:15 51°14.056 2°47.957 21.1 11.8 19 12.5
2009-04-23 08:59:20 51°14.071 2°47.967 21.9 11.9 22 12.4
2009-04-23 08:59:24 51°14.084 2°47.974 22.5 11.9 20 12.4
2009-04-23 08:59:30 51°14.102 2°47.986 22.8 11.9 23 12.4
2009-04-23 08:59:35 51°14.117 2°47.996 23.6 12 22 12.5
2009-04-23 08:59:40 51°14.133 2°48.006 23.9 12 23 12.6
2009-04-23 08:59:44 51°14.145 2°48.014 24.1 12 23 12.5
2009-04-23 08:59:50 51°14.163 2°48.027 24.7 12 24 12.6
2009-04-23 08:59:55 51°14.178 2°48.038 24.7 12.1 24 12.5
2009-04-23 09:00:00 51°14.194 2°48.048 24.8 12.1 24 12.6
2009-04-23 09:00:05 51°14.209 2°48.06 25.1 12.1 25 12.6
2009-04-23 09:00:10 51°14.224 2°48.071 25.7 12.1 24 12.6
2009-04-23 09:00:15 51°14.239 2°48.082 26.3 12.1 26 12.6
2009-04-23 09:00:20 51°14.255 2°48.093 26.5 12.1 24 12.6
2009-04-23 09:00:24 51°14.267 2°48.102 25.5 12.1 24 12.6
2009-04-23 09:00:30 51°14.285 2°48.115 25.5 12.1 24 12.6
2009-04-23 09:00:35 51°14.301 2°48.125 25.2 12.1 23 12.6
2009-04-23 09:00:40 51°14.316 2°48.136 24.7 12.1 24 12.6
2009-04-23 09:00:45 51°14.331 2°48.147 24.8 12.1 24 12.7
2009-04-23 09:00:50 51°14.347 2°48.157 24.9 12.1 23 12.6
2009-04-23 09:00:55 51°14.362 2°48.168 24.7 12.1 23 12.7
2009-04-23 09:01:00 51°14.378 2°48.179 24.7 12.1 24 12.7
2009-04-23 09:01:04 51°14.39 2°48.188 25.6 12.1 25 12.8
2009-04-23 09:01:10 51°14.408 2°48.202 26 12.2 25 12.7
2009-04-23 09:01:15 51°14.424 2°48.213 26.5 12.2 26 12.8
2009-04-23 09:01:20 51°14.439 2°48.225 27 12.2 26 12.8
2009-04-23 09:01:24 51°14.451 2°48.234 27.2 12.2 26 12.8
2009-04-23 09:01:30 51°14.469 2°48.249 27.1 12.2 26 12.8
2009-04-23 09:01:35 51°14.485 2°48.261 27.1 12.2 26 12.7
2009-04-23 09:01:40 51°14.5 2°48.272 27.4 12.2 26 12.7
2009-04-23 09:01:44 51°14.512 2°48.282 27.2 12.3 25 12.9
2009-04-23 09:01:50 51°14.531 2°48.295 26.7 12.2 25 12.8
2009-04-23 09:01:55 51°14.546 2°48.307 27 12.2 26 12.9
2009-04-23 09:02:00 51°14.561 2°48.318 26.9 12.3 24 12.9
2009-04-23 09:02:05 51°14.577 2°48.329 25.9 12.3 24 12.9
2009-04-23 09:02:10 51°14.592 2°48.34 25.6 12.2 23 12.9
2009-04-23 09:02:15 51°14.608 2°48.35 24.8 12.2 23 12.9
2009-04-23 09:02:20 51°14.624 2°48.361 24.3 12.2 23 12.9
2009-04-23 09:02:25 51°14.639 2°48.371 24.1 12.2 23 13
2009-04-23 09:02:30 51°14.655 2°48.381 24 12.2 22 13
2009-04-23 09:02:35 51°14.671 2°48.392 23.8 12.2 23 13
2009-04-23 09:02:40 51°14.687 2°48.402 23.9 12.2 22 13
2009-04-23 09:02:44 51°14.699 2°48.41 23.9 12.2 22 13
2009-04-23 09:02:50 51°14.718 2°48.423 23.9 12.2 23 13.1
2009-04-23 09:02:55 51°14.734 2°48.433 24.1 12.2 23 13
2009-04-23 09:03:00 51°14.749 2°48.444 24.1 12.3 23 13.1
2009-04-23 09:03:05 51°14.765 2°48.454 24.2 12.3 23 13.1
2009-04-23 09:03:10 51°14.781 2°48.465 24.1 12.3 23 13.1
2009-04-23 09:03:15 51°14.796 2°48.475 24 12.2 23 13.3
2009-04-23 09:03:20 51°14.812 2°48.486 24.3 12.2 23 13.2
2009-04-23 09:03:25 51°14.828 2°48.497 24.5 12.2 23 13.3
2009-04-23 09:03:30 51°14.843 2°48.507 24.5 12.3 23 13.3
2009-04-23 09:03:35 51°14.859 2°48.518 24.1 12.3 23 13.3
2009-04-23 09:03:40 51°14.875 2°48.528 24 12.3 23 13.4
2009-04-23 09:03:44 51°14.887 2°48.536 24.4 12.2 23 13.4
2009-04-23 09:03:50 51°14.905 2°48.549 24.7 12.2 23 13.5
2009-04-23 09:03:55 51°14.921 2°48.56 24.5 12.3 23 13.5
2009-04-23 09:04:00 51°14.937 2°48.571 24.4 12.3 24 13.5
2009-04-23 09:04:04 51°14.949 2°48.579 24.7 12.2 24 13.6
2009-04-23 09:04:10 51°14.968 2°48.593 25.1 12.3 25 13.6
2009-04-23 09:04:15 51°14.983 2°48.604 25.5 12.3 24 13.7
2009-04-23 09:04:20 51°14.999 2°48.616 25.4 12.3 25 13.7
2009-04-23 09:04:25 51°15.015 2°48.627 25 12.3 23 13.8
2009-04-23 09:04:30 51°15.03 2°48.638 24.4 12.2 24 13.7
2009-04-23 09:04:35 51°15.045 2°48.648 24.3 12 24 13.8
2009-04-23 09:04:40 51°15.06 2°48.659 24.4 11.8 24 13.8
2009-04-23 09:04:45 51°15.075 2°48.669 24.4 11.6 24 13.9
2009-04-23 09:04:50 51°15.09 2°48.679 24.3 11.4 24 13.9
2009-04-23 09:04:55 51°15.104 2°48.689 24.3 11.2 24 14
2009-04-23 09:05:00 51°15.118 2°48.699 24.7 11.1 24 14
2009-04-23 09:05:05 51°15.132 2°48.71 24.9 11 25 14.1
2009-04-23 09:05:10 51°15.146 2°48.72 25.3 10.9 25 14.2
2009-04-23 09:05:15 51°15.159 2°48.73 25.1 10.9 25 14.1
2009-04-23 09:05:20 51°15.173 2°48.74 24.9 10.8 24 14.2
2009-04-23 09:05:25 51°15.186 2°48.75 24.8 10.8 25 14.2
2009-04-23 09:05:30 51°15.2 2°48.76 24.8 10.8 25 14.2
2009-04-23 09:05:35 51°15.213 2°48.77 25.5 10.7 26 14.2
2009-04-23 09:05:40 51°15.227 2°48.781 26.2 10.7 26 14.2
2009-04-23 09:05:45 51°15.24 2°48.791 25.8 10.7 25 14.2
2009-04-23 09:05:50 51°15.254 2°48.801 25.4 10.7 26 14.3
2009-04-23 09:05:55 51°15.267 2°48.811 25.4 10.7 25 14.2
2009-04-23 09:06:00 51°15.28 2°48.821 25.3 10.7 25 14.3
2009-04-23 09:06:04 51°15.291 2°48.829 25.2 10.7 25 14.2
2009-04-23 09:06:10 51°15.307 2°48.841 24.9 10.7 26 14.3
2009-04-23 09:06:15 51°15.32 2°48.852 25.5 10.7 27 14.2
2009-04-23 09:06:20 51°15.333 2°48.863 26.4 10.6 28 14.2
2009-04-23 09:06:24 51°15.344 2°48.872 27.4 10.5 29 14.2
2009-04-23 09:06:30 51°15.359 2°48.883 26.7 10.5 26 14.1
2009-04-23 09:06:35 51°15.372 2°48.893 24.2 10.5 26 14.1
2009-04-23 09:06:40 51°15.385 2°48.904 24.4 10.4 27 14
2009-04-23 09:06:45 51°15.398 2°48.914 24.7 10.4 25 14
2009-04-23 09:06:50 51°15.411 2°48.924 24.1 10.4 26 13.9
2009-04-23 09:06:55 51°15.424 2°48.934 23.8 10.4 25 13.8
2009-04-23 09:07:00 51°15.437 2°48.943 23.7 10.4 25 13.8
2009-04-23 09:07:05 51°15.45 2°48.953 23.6 10.4 25 13.6
2009-04-23 09:07:10 51°15.463 2°48.963 23.1 10.4 24 13.5
2009-04-23 09:07:15 51°15.476 2°48.972 22.8 10.3 24 13.4
2009-04-23 09:07:20 51°15.489 2°48.982 22.9 10.3 25 13.2
2009-04-23 09:07:25 51°15.502 2°48.992 23.2 10.3 25 13.1
2009-04-23 09:07:30 51°15.516 2°49.001 22.6 10.3 24 13
2009-04-23 09:07:35 51°15.529 2°49.01 22 10.3 24 12.8
2009-04-23 09:07:40 51°15.542 2°49.02 22.2 10.3 25 12.7
2009-04-23 09:07:45 51°15.555 2°49.03 22.8 10.3 25 12.6
2009-04-23 09:07:50 51°15.567 2°49.041 24.8 10.3 30 12.5
2009-04-23 09:07:55 51°15.579 2°49.053 27 10.3 31 12.4
2009-04-23 09:08:00 51°15.591 2°49.066 30 10.2 36 12.3
2009-04-23 09:08:05 51°15.602 2°49.08 33.7 10.2 39 12.2
2009-04-23 09:08:10 51°15.613 2°49.095 36.8 10.3 40 12.2
2009-04-23 09:08:15 51°15.624 2°49.11 38.1 10.3 41 12.2